Time;durP1;ratioP1;P1;durP2;ratioP2;P2;SDS_P1;SDS_P2;PMS_P1;PMS_P2;Temp;Humidity;BMP_temperature;BMP_pressure;BME280_temperature;BME280_humidity;BME280_pressure;Samples;Min_cycle;Max_cycle;Signal;HPM_P1;HPM_P2
2023/09/02 00:00:10;;;;;;;1.47;1.30;;;14.10;99.90;;;;;;484578;245;28276;-76
2023/09/02 00:02:11;;;;;;;2.50;1.40;;;14.20;99.90;;;;;;484571;245;28186;-75
2023/09/02 00:04:12;;;;;;;1.50;1.40;;;14.20;99.90;;;;;;484595;245;28325;-73
2023/09/02 00:06:13;;;;;;;2.00;1.70;;;14.20;99.90;;;;;;484578;245;28205;-75
2023/09/02 00:08:15;;;;;;;1.53;1.30;;;14.20;99.90;;;;;;484580;245;28433;-75
2023/09/02 00:10:16;;;;;;;2.50;1.70;;;14.20;99.90;;;;;;484595;245;28213;-73
2023/09/02 00:12:18;;;;;;;1.40;1.30;;;14.20;99.90;;;;;;484610;245;28313;-72
2023/09/02 00:14:20;;;;;;;1.27;1.20;;;14.20;99.90;;;;;;484605;245;28282;-73
2023/09/02 00:16:21;;;;;;;1.30;1.20;;;14.20;99.90;;;;;;484611;245;28205;-73
2023/09/02 00:18:22;;;;;;;1.30;1.20;;;14.10;99.90;;;;;;484601;245;28401;-75
2023/09/02 00:20:24;;;;;;;1.30;1.20;;;14.10;99.90;;;;;;484643;245;28214;-73
2023/09/02 00:22:25;;;;;;;2.20;1.57;;;14.10;99.90;;;;;;484641;245;28235;-73
2023/09/02 00:24:26;;;;;;;1.50;1.40;;;14.10;99.90;;;;;;484628;245;28181;-73
2023/09/02 00:26:27;;;;;;;1.70;1.30;;;14.10;99.90;;;;;;484650;245;28666;-73
2023/09/02 00:28:29;;;;;;;1.23;1.10;;;14.10;99.90;;;;;;484639;245;28787;-73
2023/09/02 00:30:30;;;;;;;1.60;1.50;;;14.10;99.90;;;;;;484611;245;28333;-73
2023/09/02 00:32:33;;;;;;;1.60;1.30;;;14.10;99.90;;;;;;484652;245;28205;-72
2023/09/02 00:34:32;;;;;;;1.43;1.33;;;14.10;99.90;;;;;;484517;245;28757;-72
2023/09/02 00:36:34;;;;;;;2.10;1.30;;;14.20;99.90;;;;;;484649;245;28768;-73
2023/09/02 00:38:35;;;;;;;1.10;1.10;;;14.30;99.90;;;;;;484610;245;28595;-73
2023/09/02 00:40:36;;;;;;;5.17;1.80;;;14.30;99.90;;;;;;484646;245;28265;-73
2023/09/02 00:42:37;;;;;;;1.60;1.50;;;14.30;99.90;;;;;;484590;245;28272;-73
2023/09/02 00:44:39;;;;;;;1.50;1.40;;;14.40;99.90;;;;;;484612;245;28411;-73
2023/09/02 00:46:40;;;;;;;1.63;1.47;;;14.40;99.90;;;;;;484622;245;28328;-74
2023/09/02 00:48:41;;;;;;;1.40;1.37;;;14.50;99.90;;;;;;484635;245;28419;-72
2023/09/02 00:50:43;;;;;;;2.23;1.50;;;14.50;99.90;;;;;;484612;245;28666;-75
2023/09/02 00:52:44;;;;;;;2.70;1.50;;;14.50;99.90;;;;;;484613;245;29295;-75
2023/09/02 00:54:45;;;;;;;1.33;1.23;;;14.50;99.90;;;;;;484612;245;28899;-76
2023/09/02 00:56:47;;;;;;;1.50;1.40;;;14.50;99.90;;;;;;484603;245;28188;-75
2023/09/02 00:58:48;;;;;;;1.10;1.00;;;14.50;99.90;;;;;;484590;245;28829;-75
2023/09/02 01:00:50;;;;;;;1.30;1.30;;;14.60;99.90;;;;;;484608;245;28755;-75
2023/09/02 01:02:52;;;;;;;4.87;1.30;;;14.60;99.90;;;;;;484639;245;29219;-71
2023/09/02 01:04:53;;;;;;;1.60;1.50;;;14.70;99.90;;;;;;484602;245;28353;-76
2023/09/02 01:06:55;;;;;;;2.40;1.40;;;14.70;99.90;;;;;;484597;245;28401;-72
2023/09/02 01:08:56;;;;;;;3.23;1.40;;;14.70;99.90;;;;;;484604;245;28929;-75
2023/09/02 01:10:58;;;;;;;2.40;1.50;;;14.70;99.90;;;;;;484660;245;28907;-76
2023/09/02 01:12:58;;;;;;;3.03;1.60;;;14.70;99.90;;;;;;484574;245;29015;-75
2023/09/02 01:14:59;;;;;;;1.50;1.40;;;14.70;99.90;;;;;;484599;245;28733;-75
2023/09/02 01:17:01;;;;;;;3.97;1.30;;;14.60;99.90;;;;;;484628;245;28414;-73
2023/09/02 01:19:02;;;;;;;1.60;1.27;;;14.60;99.90;;;;;;484601;245;28422;-75
2023/09/02 01:21:03;;;;;;;3.13;1.67;;;14.60;99.90;;;;;;484606;245;28825;-73
2023/09/02 01:23:05;;;;;;;2.63;1.30;;;14.60;99.90;;;;;;484601;245;28757;-76
2023/09/02 01:25:07;;;;;;;1.43;1.33;;;14.50;99.90;;;;;;484622;245;28228;-73
2023/09/02 01:27:08;;;;;;;1.50;1.40;;;14.60;99.90;;;;;;484622;245;28450;-73
2023/09/02 01:29:09;;;;;;;5.87;1.97;;;14.60;99.90;;;;;;484631;245;28420;-75
2023/09/02 01:31:11;;;;;;;7.23;1.50;;;14.60;99.90;;;;;;484597;245;28896;-75
2023/09/02 01:33:13;;;;;;;2.63;1.33;;;14.60;99.90;;;;;;484603;245;28885;-75
2023/09/02 01:35:14;;;;;;;4.60;1.50;;;14.60;99.90;;;;;;484596;245;28738;-73
2023/09/02 01:37:20;;;;;;;1.50;1.40;;;14.60;99.90;;;;;;484619;245;28749;-73
2023/09/02 01:39:18;;;;;;;1.87;1.77;;;14.60;99.90;;;;;;484492;245;28825;-73
2023/09/02 01:41:19;;;;;;;3.77;1.40;;;14.70;99.90;;;;;;484613;245;28383;-73
2023/09/02 01:43:21;;;;;;;3.60;1.50;;;14.70;99.90;;;;;;484586;245;29312;-73
2023/09/02 01:45:22;;;;;;;1.47;1.30;;;14.60;99.90;;;;;;484640;245;28763;-73
2023/09/02 01:47:25;;;;;;;1.40;1.30;;;14.60;99.90;;;;;;484622;245;28829;-73
2023/09/02 01:49:26;;;;;;;1.60;1.50;;;14.60;99.90;;;;;;484629;245;28743;-71
2023/09/02 01:51:27;;;;;;;1.50;1.40;;;14.70;99.90;;;;;;484634;245;28816;-72
2023/09/02 01:53:29;;;;;;;2.20;1.20;;;14.70;99.90;;;;;;484619;245;28881;-73
2023/09/02 01:55:30;;;;;;;3.23;1.60;;;14.70;99.90;;;;;;484473;245;29204;-76
2023/09/02 01:57:31;;;;;;;2.60;1.20;;;14.70;99.90;;;;;;484599;245;29217;-77
2023/09/02 01:59:32;;;;;;;1.63;1.30;;;14.80;99.90;;;;;;484608;245;28561;-75
2023/09/02 02:01:33;;;;;;;2.80;1.63;;;14.70;99.90;;;;;;484599;245;28426;-75
2023/09/02 02:03:35;;;;;;;1.40;1.30;;;14.70;99.90;;;;;;484591;245;28810;-77
2023/09/02 02:05:36;;;;;;;1.80;1.57;;;14.80;99.90;;;;;;484604;245;28749;-75
2023/09/02 02:07:37;;;;;;;1.47;1.37;;;14.80;99.90;;;;;;484618;245;28744;-73
2023/09/02 02:09:38;;;;;;;4.50;1.67;;;14.80;99.90;;;;;;484598;245;29188;-74
2023/09/02 02:11:40;;;;;;;7.10;1.87;;;14.90;99.90;;;;;;484597;245;29267;-73
2023/09/02 02:13:41;;;;;;;4.00;1.40;;;14.80;99.90;;;;;;484583;245;28895;-75
2023/09/02 02:15:42;;;;;;;3.47;1.60;;;14.80;99.90;;;;;;484589;245;28730;-75
2023/09/02 02:17:44;;;;;;;3.80;1.50;;;14.80;99.90;;;;;;484591;245;28422;-76
2023/09/02 02:19:46;;;;;;;4.23;1.70;;;14.80;99.90;;;;;;484595;245;28738;-76
2023/09/02 02:21:47;;;;;;;2.67;1.80;;;14.70;99.90;;;;;;484602;245;28751;-73
2023/09/02 02:23:49;;;;;;;3.60;1.80;;;14.70;99.90;;;;;;484590;245;28491;-74
2023/09/02 02:25:50;;;;;;;3.87;1.80;;;14.60;99.90;;;;;;484620;245;28743;-74
2023/09/02 02:27:52;;;;;;;2.33;1.60;;;14.60;99.90;;;;;;484623;245;28329;-76
2023/09/02 02:29:53;;;;;;;6.73;1.80;;;14.60;99.90;;;;;;484551;245;28882;-73
2023/09/02 02:31:55;;;;;;;1.97;1.60;;;14.60;99.90;;;;;;484597;245;29372;-74
2023/09/02 02:33:55;;;;;;;1.57;1.47;;;14.70;99.90;;;;;;484582;245;29298;-76
2023/09/02 02:35:57;;;;;;;2.07;1.67;;;14.80;99.90;;;;;;484583;245;28809;-75
2023/09/02 02:37:59;;;;;;;6.87;1.73;;;14.80;99.90;;;;;;484609;245;28431;-74
2023/09/02 02:39:59;;;;;;;1.40;1.30;;;14.90;99.90;;;;;;484577;245;28738;-76
2023/09/02 02:42:01;;;;;;;2.47;1.50;;;14.90;99.90;;;;;;484586;245;28751;-74
2023/09/02 02:44:02;;;;;;;1.33;1.23;;;14.90;99.90;;;;;;484604;245;29272;-75
2023/09/02 02:46:03;;;;;;;3.20;2.03;;;15.00;99.90;;;;;;484595;245;29224;-74
2023/09/02 02:48:04;;;;;;;1.37;1.30;;;15.00;99.90;;;;;;484603;245;29273;-74
2023/09/02 02:50:06;;;;;;;1.30;1.20;;;15.00;99.90;;;;;;484602;245;28726;-75
2023/09/02 02:52:07;;;;;;;4.03;1.77;;;15.00;99.90;;;;;;484582;245;28802;-79
2023/09/02 02:54:08;;;;;;;2.03;1.40;;;15.00;99.90;;;;;;484594;245;29290;-76
2023/09/02 02:56:10;;;;;;;1.40;1.30;;;15.00;99.90;;;;;;484593;245;28888;-76
2023/09/02 02:58:12;;;;;;;1.20;1.10;;;15.00;99.90;;;;;;484584;245;28519;-75
2023/09/02 03:00:13;;;;;;;6.20;1.50;;;15.00;99.90;;;;;;484625;245;28421;-73
2023/09/02 03:02:14;;;;;;;1.70;1.47;;;15.10;99.90;;;;;;484617;245;28782;-73
2023/09/02 03:04:17;;;;;;;5.73;1.90;;;15.10;99.90;;;;;;484619;245;28570;-74
2023/09/02 03:06:18;;;;;;;2.20;1.80;;;15.10;99.90;;;;;;484569;245;28751;-75
2023/09/02 03:08:19;;;;;;;3.57;1.93;;;15.10;99.90;;;;;;484578;245;28752;-74
2023/09/02 03:10:20;;;;;;;1.50;1.40;;;15.10;99.90;;;;;;484602;245;28751;-75
2023/09/02 03:12:21;;;;;;;3.03;1.50;;;15.00;99.90;;;;;;484606;245;28751;-75
2023/09/02 03:14:23;;;;;;;1.87;1.30;;;15.00;99.90;;;;;;484597;245;28740;-74
2023/09/02 03:16:24;;;;;;;2.40;1.47;;;15.00;99.90;;;;;;484563;245;29268;-73
2023/09/02 03:18:25;;;;;;;5.63;1.90;;;15.00;99.90;;;;;;484601;245;29200;-76
2023/09/02 03:20:26;;;;;;;3.50;1.50;;;15.00;99.90;;;;;;484618;245;28978;-72
2023/09/02 03:22:28;;;;;;;1.40;1.30;;;15.00;99.90;;;;;;484603;245;29138;-73
2023/09/02 03:24:29;;;;;;;2.27;1.40;;;15.00;99.90;;;;;;484562;245;28830;-75
2023/09/02 03:26:30;;;;;;;1.63;1.53;;;15.00;99.90;;;;;;484596;245;28839;-73
2023/09/02 03:28:32;;;;;;;1.67;1.57;;;15.00;99.90;;;;;;484589;245;28791;-74
2023/09/02 03:30:34;;;;;;;1.63;1.53;;;15.00;99.90;;;;;;484593;245;28718;-73
2023/09/02 03:32:35;;;;;;;1.80;1.57;;;15.00;99.90;;;;;;484551;245;28725;-76
2023/09/02 03:34:36;;;;;;;2.03;1.70;;;15.00;99.90;;;;;;484587;245;28750;-75
2023/09/02 03:36:37;;;;;;;1.63;1.40;;;14.90;99.90;;;;;;484580;245;28434;-75
2023/09/02 03:38:39;;;;;;;1.80;1.50;;;14.90;99.90;;;;;;484592;245;28963;-75
2023/09/02 03:40:40;;;;;;;2.50;1.70;;;14.90;99.90;;;;;;484592;245;28977;-75
2023/09/02 03:42:41;;;;;;;2.33;1.40;;;14.90;99.90;;;;;;484571;245;28844;-74
2023/09/02 03:44:42;;;;;;;1.70;1.60;;;14.90;99.90;;;;;;484582;245;29200;-75
2023/09/02 03:46:44;;;;;;;2.00;1.60;;;14.90;99.90;;;;;;484601;245;29276;-75
2023/09/02 03:48:46;;;;;;;2.07;1.50;;;14.90;99.90;;;;;;484587;245;29292;-76
2023/09/02 03:50:46;;;;;;;2.00;1.30;;;14.90;99.90;;;;;;484571;245;28507;-74
2023/09/02 03:52:48;;;;;;;1.70;1.60;;;14.90;99.90;;;;;;484575;245;28319;-74
2023/09/02 03:54:49;;;;;;;2.10;1.47;;;14.90;99.90;;;;;;484581;245;29283;-73
2023/09/02 03:56:50;;;;;;;1.70;1.60;;;14.90;99.90;;;;;;484608;245;29196;-74
2023/09/02 03:58:53;;;;;;;2.43;1.40;;;14.90;99.90;;;;;;484620;245;28746;-74
2023/09/02 04:00:53;;;;;;;2.20;1.60;;;15.00;99.90;;;;;;484496;245;28821;-73
2023/09/02 04:02:54;;;;;;;1.50;1.40;;;15.00;99.90;;;;;;484590;245;29196;-76
2023/09/02 04:04:55;;;;;;;5.57;1.70;;;15.00;99.90;;;;;;484566;245;29214;-74
2023/09/02 04:06:56;;;;;;;2.93;1.53;;;15.10;99.90;;;;;;484620;245;28814;-73
2023/09/02 04:08:59;;;;;;;2.47;1.73;;;15.00;99.90;;;;;;484571;245;28733;-75
2023/09/02 04:11:00;;;;;;;1.70;1.60;;;15.00;99.90;;;;;;484600;245;28768;-73
2023/09/02 04:13:01;;;;;;;5.50;1.77;;;15.10;99.90;;;;;;484596;245;28818;-74
2023/09/02 04:15:02;;;;;;;3.07;1.53;;;15.10;99.90;;;;;;484577;245;29219;-75
2023/09/02 04:17:04;;;;;;;6.50;1.67;;;15.10;99.90;;;;;;484568;245;29205;-75
2023/09/02 04:19:05;;;;;;;2.77;1.37;;;15.10;99.90;;;;;;484586;245;28735;-75
2023/09/02 04:21:10;;;;;;;3.30;1.70;;;15.10;99.90;;;;;;484559;245;28744;-73
2023/09/02 04:23:08;;;;;;;4.00;1.60;;;15.10;99.90;;;;;;484465;245;29326;-72
2023/09/02 04:25:14;;;;;;;3.43;1.40;;;15.10;99.90;;;;;;484605;245;29199;-73
2023/09/02 04:27:13;;;;;;;2.93;1.77;;;15.10;99.90;;;;;;484469;245;28728;-73
2023/09/02 04:29:14;;;;;;;5.50;1.50;;;15.10;99.90;;;;;;484592;245;28806;-71
2023/09/02 04:31:16;;;;;;;1.70;1.60;;;15.10;99.90;;;;;;484648;245;29262;-73
2023/09/02 04:33:17;;;;;;;3.03;1.77;;;15.10;99.90;;;;;;484581;245;29289;-75
2023/09/02 04:35:18;;;;;;;1.87;1.57;;;15.10;99.90;;;;;;484577;245;28748;-75
2023/09/02 04:37:19;;;;;;;1.70;1.60;;;15.10;99.90;;;;;;484613;245;28804;-72
2023/09/02 04:39:21;;;;;;;1.23;1.20;;;15.10;99.90;;;;;;484586;245;29307;-72
2023/09/02 04:41:22;;;;;;;1.50;1.40;;;15.00;99.90;;;;;;484611;245;29269;-72
2023/09/02 04:43:23;;;;;;;2.20;1.60;;;14.90;99.90;;;;;;484610;245;29269;-73
2023/09/02 04:45:24;;;;;;;1.60;1.50;;;14.90;99.90;;;;;;484611;245;28729;-73
2023/09/02 04:47:26;;;;;;;3.70;1.80;;;14.90;99.90;;;;;;484630;245;28754;-73
2023/09/02 04:49:27;;;;;;;2.17;1.97;;;14.90;99.90;;;;;;484580;245;28730;-75
2023/09/02 04:51:28;;;;;;;2.13;1.63;;;14.80;99.90;;;;;;484480;245;28745;-76
2023/09/02 04:53:30;;;;;;;3.13;1.30;;;14.80;99.90;;;;;;484589;245;28513;-75
2023/09/02 04:55:31;;;;;;;6.03;2.37;;;14.70;99.90;;;;;;484571;245;28437;-75
2023/09/02 04:57:32;;;;;;;5.63;1.60;;;14.70;99.90;;;;;;484593;245;28719;-73
2023/09/02 04:59:33;;;;;;;2.27;1.70;;;14.70;99.90;;;;;;484607;245;29212;-75
2023/09/02 05:01:35;;;;;;;3.43;1.60;;;14.60;99.90;;;;;;484610;245;28441;-73
2023/09/02 05:03:36;;;;;;;1.80;1.70;;;14.60;99.90;;;;;;484624;245;28396;-72
2023/09/02 05:05:37;;;;;;;1.60;1.50;;;14.70;99.90;;;;;;484599;245;28439;-75
2023/09/02 05:07:39;;;;;;;1.93;1.60;;;14.70;99.90;;;;;;484607;245;29295;-75
2023/09/02 05:09:40;;;;;;;3.73;1.60;;;14.60;99.90;;;;;;484606;245;28815;-73
2023/09/02 05:11:41;;;;;;;2.43;1.73;;;14.60;99.90;;;;;;484600;245;28438;-75
2023/09/02 05:13:42;;;;;;;3.10;1.70;;;14.60;99.90;;;;;;484600;245;28757;-73
2023/09/02 05:15:44;;;;;;;2.30;2.10;;;14.60;99.90;;;;;;484592;245;28439;-72
2023/09/02 05:17:45;;;;;;;1.73;1.60;;;14.60;99.90;;;;;;484599;245;28443;-76
2023/09/02 05:19:46;;;;;;;2.10;1.57;;;14.60;99.90;;;;;;484636;245;28836;-73
2023/09/02 05:21:48;;;;;;;2.10;1.87;;;14.60;99.90;;;;;;484620;245;28851;-72
2023/09/02 05:23:49;;;;;;;1.80;1.70;;;14.60;99.90;;;;;;484620;245;29293;-73
2023/09/02 05:25:50;;;;;;;2.20;2.00;;;14.60;99.90;;;;;;484618;245;28838;-73
2023/09/02 05:27:52;;;;;;;2.20;1.80;;;14.70;99.90;;;;;;484619;245;28726;-73
2023/09/02 05:29:53;;;;;;;2.00;1.50;;;14.80;99.90;;;;;;484626;245;28915;-75
2023/09/02 05:31:54;;;;;;;3.63;1.80;;;14.80;99.90;;;;;;484618;245;29196;-74
2023/09/02 05:33:55;;;;;;;1.70;1.60;;;14.90;99.90;;;;;;484631;245;28839;-75
2023/09/02 05:35:57;;;;;;;1.60;1.50;;;14.90;99.90;;;;;;484603;245;28395;-73
2023/09/02 05:37:58;;;;;;;4.13;1.70;;;14.90;99.90;;;;;;484594;245;28734;-73
2023/09/02 05:39:59;;;;;;;8.73;1.97;;;15.00;99.90;;;;;;484599;245;28833;-73
2023/09/02 05:42:00;;;;;;;1.30;1.30;;;15.00;99.90;;;;;;484606;245;28830;-74
2023/09/02 05:44:02;;;;;;;1.73;1.63;;;15.00;99.90;;;;;;484619;245;28444;-73
2023/09/02 05:46:03;;;;;;;1.70;1.60;;;15.00;99.90;;;;;;484622;245;28806;-73
2023/09/02 05:48:04;;;;;;;1.53;1.20;;;15.10;99.90;;;;;;484582;245;28419;-75
2023/09/02 05:50:05;;;;;;;1.70;1.60;;;15.10;99.90;;;;;;484625;245;28863;-74
2023/09/02 05:52:07;;;;;;;1.67;1.57;;;15.10;99.90;;;;;;484599;245;29321;-74
2023/09/02 05:54:09;;;;;;;1.77;1.60;;;15.10;99.90;;;;;;484605;245;28423;-75
2023/09/02 05:56:09;;;;;;;1.70;1.60;;;15.10;99.90;;;;;;484590;245;28831;-73
2023/09/02 05:58:11;;;;;;;1.73;1.40;;;15.10;99.90;;;;;;484621;245;29262;-72
2023/09/02 06:00:12;;;;;;;1.67;1.57;;;15.10;99.90;;;;;;484616;245;29193;-73
2023/09/02 06:02:13;;;;;;;1.60;1.50;;;15.10;99.90;;;;;;484598;245;28808;-75
2023/09/02 06:04:14;;;;;;;3.77;1.93;;;15.20;99.90;;;;;;484594;245;28740;-75
2023/09/02 06:06:16;;;;;;;6.80;2.10;;;15.20;99.90;;;;;;484596;245;29493;-74
2023/09/02 06:08:18;;;;;;;1.63;1.53;;;15.30;99.90;;;;;;484600;245;29287;-75
2023/09/02 06:10:19;;;;;;;3.43;1.53;;;15.30;99.90;;;;;;484590;245;28748;-75
2023/09/02 06:12:20;;;;;;;1.67;1.57;;;15.30;99.90;;;;;;484599;245;29189;-72
2023/09/02 06:14:22;;;;;;;1.60;1.50;;;15.30;99.90;;;;;;484604;245;28834;-72
2023/09/02 06:16:23;;;;;;;2.50;1.50;;;15.30;99.90;;;;;;484588;245;28812;-75
2023/09/02 06:18:24;;;;;;;3.07;1.70;;;15.30;99.90;;;;;;484602;245;28735;-76
2023/09/02 06:20:26;;;;;;;1.77;1.67;;;15.40;99.90;;;;;;484591;245;28741;-75
2023/09/02 06:22:27;;;;;;;3.73;1.70;;;15.40;99.90;;;;;;484608;245;28805;-75
2023/09/02 06:24:28;;;;;;;8.30;1.60;;;15.40;99.90;;;;;;484596;245;28814;-73
2023/09/02 06:26:30;;;;;;;2.83;1.70;;;15.40;99.90;;;;;;484619;245;28760;-73
2023/09/02 06:28:31;;;;;;;2.03;1.50;;;15.50;99.90;;;;;;484625;245;28759;-72
2023/09/02 06:30:32;;;;;;;3.23;1.80;;;15.50;99.90;;;;;;484592;245;28760;-74
2023/09/02 06:32:33;;;;;;;2.30;1.77;;;15.50;99.90;;;;;;484602;245;28737;-73
2023/09/02 06:34:35;;;;;;;2.60;1.80;;;15.50;99.90;;;;;;484606;245;28738;-72
2023/09/02 06:36:36;;;;;;;2.30;1.50;;;15.50;99.90;;;;;;484574;245;28727;-75
2023/09/02 06:38:37;;;;;;;1.63;1.53;;;15.60;99.90;;;;;;484600;245;29276;-78
2023/09/02 06:40:39;;;;;;;4.20;1.50;;;15.60;99.90;;;;;;484595;245;28829;-75
2023/09/02 06:42:40;;;;;;;1.77;1.67;;;15.70;99.90;;;;;;484601;245;28749;-75
2023/09/02 06:44:41;;;;;;;2.20;1.70;;;15.90;99.90;;;;;;484609;245;28736;-74
2023/09/02 06:46:42;;;;;;;2.20;1.80;;;15.90;99.90;;;;;;484589;245;28739;-75
2023/09/02 06:48:44;;;;;;;1.80;1.70;;;16.10;99.90;;;;;;484608;245;28856;-76
2023/09/02 06:50:46;;;;;;;3.07;1.77;;;16.20;99.90;;;;;;484576;245;28763;-74
2023/09/02 06:52:46;;;;;;;3.57;1.70;;;16.30;99.90;;;;;;484575;245;29279;-74
2023/09/02 06:54:48;;;;;;;2.47;1.80;;;16.30;99.90;;;;;;484591;245;29324;-75
2023/09/02 06:56:50;;;;;;;1.67;1.57;;;16.40;99.90;;;;;;484578;245;29204;-75
2023/09/02 06:58:50;;;;;;;1.50;1.30;;;16.50;99.90;;;;;;484572;245;28824;-73
2023/09/02 07:00:51;;;;;;;2.23;1.40;;;16.60;99.90;;;;;;484602;245;28836;-72
2023/09/02 07:02:53;;;;;;;1.73;1.40;;;16.70;99.90;;;;;;484593;245;28748;-73
2023/09/02 07:04:54;;;;;;;1.73;1.40;;;16.80;99.90;;;;;;484591;245;28803;-73
2023/09/02 07:06:55;;;;;;;1.67;1.30;;;17.00;99.90;;;;;;484586;245;29495;-74
2023/09/02 07:08:56;;;;;;;1.70;1.60;;;17.00;99.90;;;;;;484601;245;29197;-73
2023/09/02 07:10:58;;;;;;;1.43;1.33;;;17.10;99.90;;;;;;484606;245;29278;-71
2023/09/02 07:12:59;;;;;;;1.67;1.57;;;17.20;99.90;;;;;;484608;245;28738;-75
2023/09/02 07:15:00;;;;;;;2.00;1.33;;;17.30;99.90;;;;;;484615;245;28813;-75
2023/09/02 07:17:02;;;;;;;2.60;1.60;;;17.40;99.90;;;;;;484605;245;28761;-81
2023/09/02 07:19:03;;;;;;;2.27;1.47;;;17.40;99.90;;;;;;484595;245;28734;-72
2023/09/02 07:21:04;;;;;;;1.73;1.47;;;17.40;99.90;;;;;;484598;245;28813;-75
2023/09/02 07:23:05;;;;;;;1.20;1.20;;;17.40;99.90;;;;;;484593;245;28721;-73
2023/09/02 07:25:07;;;;;;;2.13;1.40;;;17.40;99.90;;;;;;484593;245;28833;-74
2023/09/02 07:27:08;;;;;;;1.60;1.50;;;17.40;99.90;;;;;;484605;245;29141;-75
2023/09/02 07:29:09;;;;;;;1.50;1.40;;;17.40;99.90;;;;;;484598;245;28742;-74
2023/09/02 07:31:11;;;;;;;1.70;1.60;;;17.40;99.90;;;;;;484599;245;28735;-75
2023/09/02 07:33:12;;;;;;;1.80;1.60;;;17.40;99.90;;;;;;484583;245;29207;-73
2023/09/02 07:35:13;;;;;;;1.70;1.60;;;17.40;99.90;;;;;;484590;245;28760;-74
2023/09/02 07:37:14;;;;;;;1.60;1.50;;;17.50;99.90;;;;;;484576;245;28798;-77
2023/09/02 07:39:16;;;;;;;1.80;1.70;;;17.60;99.90;;;;;;484587;245;29202;-75
2023/09/02 07:41:17;;;;;;;1.60;1.50;;;17.60;99.90;;;;;;484602;245;28820;-75
2023/09/02 07:43:18;;;;;;;2.40;1.43;;;17.60;99.90;;;;;;484588;245;29305;-76
2023/09/02 07:45:20;;;;;;;1.70;1.60;;;17.70;99.90;;;;;;484597;245;28837;-76
2023/09/02 07:47:21;;;;;;;1.43;1.33;;;17.90;99.90;;;;;;484582;245;28825;-75
2023/09/02 07:49:22;;;;;;;1.70;1.60;;;18.00;99.90;;;;;;484585;245;29195;-74
2023/09/02 07:51:23;;;;;;;3.87;1.60;;;18.10;99.90;;;;;;484604;245;29215;-73
2023/09/02 07:53:25;;;;;;;1.37;1.37;;;18.10;99.90;;;;;;484553;245;29275;-76
2023/09/02 07:55:26;;;;;;;2.80;1.40;;;18.20;99.90;;;;;;484609;245;28747;-75
2023/09/02 07:57:27;;;;;;;1.50;1.40;;;18.20;99.90;;;;;;484594;245;28817;-73
2023/09/02 07:59:28;;;;;;;1.63;1.53;;;18.20;99.90;;;;;;484604;245;28730;-73
2023/09/02 08:01:30;;;;;;;2.63;1.60;;;18.20;99.90;;;;;;484598;245;28749;-73
2023/09/02 08:03:31;;;;;;;1.50;1.40;;;18.30;99.90;;;;;;484598;245;28730;-75
2023/09/02 08:05:32;;;;;;;1.40;1.30;;;18.40;99.90;;;;;;484587;245;28747;-75
2023/09/02 08:07:33;;;;;;;1.27;1.23;;;18.50;99.90;;;;;;484544;245;28731;-75
2023/09/02 08:09:35;;;;;;;1.40;1.30;;;18.50;99.90;;;;;;484587;245;28750;-74
2023/09/02 08:11:36;;;;;;;1.80;1.70;;;18.60;99.90;;;;;;484592;245;29313;-74
2023/09/02 08:13:37;;;;;;;1.93;1.73;;;18.60;99.90;;;;;;484590;245;29200;-73
2023/09/02 08:15:38;;;;;;;1.20;1.20;;;18.70;99.90;;;;;;484597;245;29210;-73
2023/09/02 08:17:41;;;;;;;5.00;1.40;;;18.70;99.90;;;;;;484582;245;28735;-75
2023/09/02 08:19:42;;;;;;;2.03;1.40;;;18.70;99.90;;;;;;484587;245;28750;-73
2023/09/02 08:21:43;;;;;;;1.73;1.63;;;18.70;99.90;;;;;;484590;245;28806;-76
2023/09/02 08:23:44;;;;;;;1.53;1.30;;;18.70;99.90;;;;;;484582;245;29218;-75
2023/09/02 08:25:46;;;;;;;1.67;1.57;;;18.80;99.90;;;;;;484593;245;29215;-74
2023/09/02 08:27:47;;;;;;;2.83;1.40;;;18.80;99.90;;;;;;484589;245;29221;-74
2023/09/02 08:29:49;;;;;;;1.90;1.40;;;18.80;99.90;;;;;;484576;245;28799;-75
2023/09/02 08:31:50;;;;;;;1.20;1.10;;;18.80;99.90;;;;;;484602;245;28831;-75
2023/09/02 08:33:53;;;;;;;2.17;1.50;;;18.80;99.90;;;;;;484616;245;28750;-75
2023/09/02 08:35:54;;;;;;;1.47;1.37;;;18.80;99.90;;;;;;484609;245;28818;-74
2023/09/02 08:37:55;;;;;;;1.50;1.40;;;18.80;99.90;;;;;;484603;245;28806;-74
2023/09/02 08:39:56;;;;;;;1.97;1.40;;;19.00;99.90;;;;;;484614;245;29254;-76
2023/09/02 08:41:58;;;;;;;1.57;1.40;;;19.00;99.90;;;;;;484612;245;29225;-74
2023/09/02 08:43:59;;;;;;;1.20;1.20;;;19.10;99.90;;;;;;484613;245;29182;-75
2023/09/02 08:46:00;;;;;;;1.27;1.13;;;19.20;99.90;;;;;;484598;245;28814;-75
2023/09/02 08:48:01;;;;;;;3.97;1.40;;;19.20;99.90;;;;;;484610;245;28735;-75
2023/09/02 08:50:03;;;;;;;1.60;1.50;;;19.20;99.90;;;;;;484616;245;28804;-75
2023/09/02 08:52:05;;;;;;;1.40;1.30;;;19.30;99.90;;;;;;484490;245;28735;-73
2023/09/02 08:54:05;;;;;;;2.40;1.40;;;19.30;99.90;;;;;;484559;245;28810;-73
2023/09/02 08:56:07;;;;;;;1.50;1.40;;;19.30;99.90;;;;;;484623;245;29192;-75
2023/09/02 08:58:08;;;;;;;3.93;1.47;;;19.60;99.90;;;;;;484563;245;29616;-74
2023/09/02 09:00:09;;;;;;;1.60;1.50;;;19.60;99.90;;;;;;484607;245;29319;-75
2023/09/02 09:02:10;;;;;;;1.80;1.70;;;19.80;99.90;;;;;;484609;245;28725;-75
2023/09/02 09:04:11;;;;;;;1.70;1.60;;;19.80;99.90;;;;;;484615;245;28808;-75
2023/09/02 09:06:14;;;;;;;4.10;1.50;;;19.90;99.90;;;;;;484616;245;28733;-74
2023/09/02 09:08:15;;;;;;;1.70;1.47;;;19.90;99.90;;;;;;484608;245;28754;-74
2023/09/02 09:10:18;;;;;;;1.90;1.70;;;19.90;99.90;;;;;;484602;245;28827;-74
2023/09/02 09:12:17;;;;;;;1.30;1.27;;;19.90;99.90;;;;;;484505;245;29233;-73
2023/09/02 09:14:19;;;;;;;2.60;1.67;;;20.00;99.90;;;;;;484590;245;29234;-76
2023/09/02 09:16:20;;;;;;;1.40;1.30;;;20.10;99.90;;;;;;484605;245;29296;-74
2023/09/02 09:18:21;;;;;;;1.73;1.47;;;20.10;99.90;;;;;;484602;245;28730;-75
2023/09/02 09:20:22;;;;;;;6.23;1.23;;;20.20;99.90;;;;;;484604;245;28733;-73
2023/09/02 09:22:24;;;;;;;2.27;1.60;;;20.30;99.90;;;;;;484609;245;28746;-73
2023/09/02 09:24:28;;;;;;;1.60;1.50;;;20.30;99.90;;;;;;484608;245;28729;-73
2023/09/02 09:26:26;;;;;;;1.90;1.80;;;20.30;99.90;;;;;;484390;245;28740;-74
2023/09/02 09:28:27;;;;;;;4.13;1.50;;;20.40;99.90;;;;;;484605;245;28752;-75
2023/09/02 09:30:29;;;;;;;2.37;1.97;;;20.40;99.90;;;;;;484607;245;28821;-74
2023/09/02 09:32:32;;;;;;;1.53;1.20;;;20.40;99.90;;;;;;484580;245;28866;-75
2023/09/02 09:34:33;;;;;;;1.80;1.70;;;20.40;99.90;;;;;;484611;245;28845;-73
2023/09/02 09:36:34;;;;;;;1.70;1.50;;;20.40;99.90;;;;;;484584;245;28769;-74
2023/09/02 09:38:36;;;;;;;1.60;1.50;;;20.40;99.90;;;;;;484599;245;28741;-74
2023/09/02 09:40:38;;;;;;;2.13;1.60;;;20.40;99.90;;;;;;484586;245;28745;-77
2023/09/02 09:42:38;;;;;;;1.50;1.40;;;20.30;99.90;;;;;;484566;245;29236;-73
2023/09/02 09:44:39;;;;;;;1.50;1.40;;;20.40;99.90;;;;;;484607;245;29221;-74
2023/09/02 09:46:41;;;;;;;2.20;1.40;;;20.30;99.90;;;;;;484610;245;29231;-74
2023/09/02 09:48:42;;;;;;;1.47;1.30;;;20.30;99.90;;;;;;484602;245;28731;-74
2023/09/02 09:50:43;;;;;;;1.73;1.63;;;20.30;99.90;;;;;;484605;245;28826;-76
2023/09/02 09:52:45;;;;;;;1.67;1.57;;;20.70;99.90;;;;;;484586;245;28738;-74
2023/09/02 09:54:51;;;;;;;1.77;1.67;;;20.90;99.90;;;;;;484595;245;28835;-74
2023/09/02 09:56:48;;;;;;;1.57;1.40;;;20.90;99.90;;;;;;484388;245;28740;-76
2023/09/02 09:58:49;;;;;;;2.77;1.70;;;20.90;99.90;;;;;;484598;245;28769;-74
2023/09/02 10:00:51;;;;;;;1.53;1.43;;;20.90;99.90;;;;;;484603;245;28834;-76
2023/09/02 10:02:53;;;;;;;1.97;1.77;;;20.90;99.90;;;;;;484594;245;29269;-75
2023/09/02 10:04:54;;;;;;;1.50;1.40;;;20.90;99.90;;;;;;484595;245;28837;-75
2023/09/02 10:06:55;;;;;;;1.23;1.13;;;20.90;99.90;;;;;;484595;245;28749;-75
2023/09/02 10:08:59;;;;;;;2.33;1.53;;;20.90;99.90;;;;;;484632;245;29194;-76
2023/09/02 10:10:58;;;;;;;2.33;1.80;;;20.90;99.90;;;;;;484421;245;29205;-76
2023/09/02 10:12:59;;;;;;;1.70;1.60;;;20.80;99.90;;;;;;484589;245;29241;-74
2023/09/02 10:15:00;;;;;;;1.83;1.53;;;20.90;99.90;;;;;;484594;245;28759;-73
2023/09/02 10:17:01;;;;;;;1.63;1.53;;;21.00;99.90;;;;;;484596;245;28815;-74
2023/09/02 10:19:04;;;;;;;1.97;1.60;;;21.10;99.90;;;;;;484583;245;28764;-74
2023/09/02 10:21:04;;;;;;;1.70;1.60;;;21.20;99.90;;;;;;484537;245;29130;-74
2023/09/02 10:23:05;;;;;;;2.70;1.87;;;21.30;99.90;;;;;;484603;245;29309;-75
2023/09/02 10:25:06;;;;;;;2.10;1.63;;;21.20;99.90;;;;;;484602;245;29223;-74
2023/09/02 10:27:08;;;;;;;2.17;1.97;;;21.20;99.90;;;;;;484601;245;29237;-74
2023/09/02 10:29:09;;;;;;;1.37;1.30;;;21.40;99.90;;;;;;484603;245;28821;-75
2023/09/02 10:31:12;;;;;;;1.63;1.53;;;21.30;99.90;;;;;;484591;245;28747;-74